createdAt,value
2018-11-25T00:00:31.664Z,3.43
2018-11-25T00:02:58.835Z,3.80
2018-11-25T00:05:26.004Z,4.10
2018-11-25T00:07:53.170Z,3.40
2018-11-25T00:10:20.362Z,2.90
2018-11-25T00:12:47.551Z,3.90
2018-11-25T00:15:14.715Z,2.70
2018-11-25T00:17:41.931Z,2.93
2018-11-25T00:20:09.796Z,2.40
2018-11-25T00:22:36.947Z,2.23
2018-11-25T00:25:04.317Z,2.60
2018-11-25T00:27:31.491Z,2.10
2018-11-25T00:29:58.677Z,2.30
2018-11-25T00:32:25.837Z,1.90
2018-11-25T00:34:53.033Z,1.90
2018-11-25T00:37:20.186Z,2.13
2018-11-25T00:39:47.631Z,1.80
2018-11-25T00:42:14.790Z,2.00
2018-11-25T00:44:41.976Z,1.80
2018-11-25T00:47:09.162Z,1.93
2018-11-25T00:49:36.345Z,1.80
2018-11-25T00:52:03.491Z,1.60
2018-11-25T00:54:30.677Z,2.27
2018-11-25T00:56:57.832Z,1.73
2018-11-25T00:59:25.017Z,2.20
2018-11-25T01:01:52.167Z,2.40
2018-11-25T01:04:19.352Z,3.03
2018-11-25T01:06:46.546Z,2.77
2018-11-25T01:09:13.714Z,3.33
2018-11-25T01:11:40.867Z,2.70
2018-11-25T01:14:08.044Z,3.40
2018-11-25T01:16:35.195Z,4.13
2018-11-25T01:19:02.623Z,3.50
2018-11-25T01:21:29.772Z,3.30
2018-11-25T01:23:56.948Z,3.70
2018-11-25T01:26:24.128Z,3.00
2018-11-25T01:28:51.305Z,3.27
2018-11-25T01:31:18.466Z,2.67
2018-11-25T01:33:45.648Z,2.80
2018-11-25T01:36:12.799Z,2.57
2018-11-25T01:38:39.982Z,2.30
2018-11-25T01:41:07.135Z,2.50
2018-11-25T01:43:34.297Z,3.00
2018-11-25T01:46:01.484Z,4.20
2018-11-25T01:48:28.634Z,4.10
2018-11-25T01:50:55.812Z,3.87
2018-11-25T01:53:23.486Z,5.63
2018-11-25T01:55:50.670Z,4.70
2018-11-25T01:58:17.827Z,5.23
2018-11-25T02:00:44.993Z,6.50
2018-11-25T02:03:12.185Z,6.20
2018-11-25T02:05:39.386Z,5.63
2018-11-25T02:08:06.587Z,6.40
2018-11-25T02:10:33.771Z,7.27
2018-11-25T02:13:01.010Z,6.53
2018-11-25T02:15:28.197Z,7.30
2018-11-25T02:17:55.372Z,6.77
2018-11-25T02:20:23.171Z,7.50
2018-11-25T02:22:50.780Z,6.80
2018-11-25T02:25:17.973Z,7.57
2018-11-25T02:27:45.152Z,5.67
2018-11-25T02:30:12.697Z,6.70
2018-11-25T02:32:39.894Z,7.00
2018-11-25T02:35:07.879Z,7.93
2018-11-25T02:37:35.094Z,8.97
2018-11-25T02:40:02.936Z,8.73
2018-11-25T02:42:30.115Z,8.33
2018-11-25T02:44:57.282Z,9.27
2018-11-25T02:47:24.474Z,9.50
2018-11-25T02:49:51.673Z,8.13
2018-11-25T02:52:18.839Z,9.13
2018-11-25T02:54:46.015Z,9.33
2018-11-25T02:57:13.219Z,9.17
2018-11-25T02:59:40.405Z,10.50
2018-11-25T03:02:07.589Z,9.97
2018-11-25T03:04:34.804Z,9.77
2018-11-25T03:07:02.025Z,10.87
2018-11-25T03:09:29.208Z,10.00
2018-11-25T03:11:56.423Z,10.90
2018-11-25T03:14:23.584Z,9.73
2018-11-25T03:16:50.778Z,12.00
2018-11-25T03:19:17.968Z,10.90
2018-11-25T03:21:45.164Z,11.77
2018-11-25T03:24:12.324Z,10.90
2018-11-25T03:26:39.519Z,9.90
2018-11-25T03:29:06.666Z,9.77
2018-11-25T03:31:33.836Z,9.60
2018-11-25T03:34:01.491Z,9.20
2018-11-25T03:36:28.685Z,10.23
2018-11-25T03:38:55.858Z,8.10
2018-11-25T03:41:23.042Z,10.20
2018-11-25T03:43:50.231Z,11.40
2018-11-25T03:46:17.396Z,10.43
2018-11-25T03:48:44.612Z,8.10
2018-11-25T03:51:11.767Z,8.83
2018-11-25T03:53:38.954Z,9.53
2018-11-25T03:56:06.127Z,10.97
2018-11-25T03:58:33.327Z,8.80
2018-11-25T04:01:00.509Z,8.50
2018-11-25T04:03:27.667Z,8.90
2018-11-25T04:05:54.883Z,12.30
2018-11-25T04:08:22.032Z,9.90
2018-11-25T04:10:49.183Z,8.40
2018-11-25T04:13:16.363Z,7.27
2018-11-25T04:15:43.530Z,9.23
2018-11-25T04:18:10.711Z,8.67
2018-11-25T04:20:37.897Z,8.20
2018-11-25T04:23:05.184Z,8.23
2018-11-25T04:25:32.375Z,8.30
2018-11-25T04:27:59.559Z,8.37
2018-11-25T04:30:26.747Z,8.37
2018-11-25T04:32:53.903Z,7.43
2018-11-25T04:35:21.091Z,8.70
2018-11-25T04:37:48.252Z,7.27
2018-11-25T04:40:15.886Z,7.70
2018-11-25T04:42:43.059Z,8.10
2018-11-25T04:45:10.806Z,7.87
2018-11-25T04:47:38.099Z,6.53
2018-11-25T04:50:07.243Z,6.57
2018-11-25T04:52:34.408Z,7.77
2018-11-25T04:55:01.746Z,6.40
2018-11-25T04:57:28.938Z,6.37
2018-11-25T04:59:56.131Z,8.10
2018-11-25T05:02:23.499Z,7.00
2018-11-25T05:04:51.720Z,6.43
2018-11-25T05:07:17.879Z,7.30
2018-11-25T05:09:45.035Z,8.20
2018-11-25T05:12:12.212Z,7.37
2018-11-25T05:14:39.378Z,8.00
2018-11-25T05:17:06.564Z,8.30
2018-11-25T05:19:33.724Z,8.63
2018-11-25T05:22:01.468Z,8.03
2018-11-25T05:24:28.636Z,8.20
2018-11-25T05:26:55.812Z,8.93
2018-11-25T05:29:22.988Z,10.20
2018-11-25T05:31:50.177Z,11.20
2018-11-25T05:34:17.331Z,8.10
2018-11-25T05:36:44.540Z,8.23
2018-11-25T05:39:11.711Z,8.70
2018-11-25T05:41:38.899Z,7.67
2018-11-25T05:44:06.056Z,6.97
2018-11-25T05:46:33.242Z,7.73
2018-11-25T05:49:01.100Z,8.43
2018-11-25T05:51:28.288Z,9.20
2018-11-25T05:53:55.433Z,7.30
2018-11-25T05:56:22.604Z,7.17
2018-11-25T05:58:49.777Z,8.30
2018-11-25T06:01:16.948Z,7.23
2018-11-25T06:03:44.115Z,9.00
2018-11-25T06:06:11.302Z,8.80
2018-11-25T06:08:38.491Z,7.80
2018-11-25T06:11:05.656Z,8.17
2018-11-25T06:13:32.858Z,8.43
2018-11-25T06:16:00.051Z,9.33
2018-11-25T06:18:27.194Z,7.63
2018-11-25T06:20:54.388Z,8.00
2018-11-25T06:23:21.551Z,9.23
2018-11-25T06:25:48.741Z,9.50
2018-11-25T06:28:15.939Z,10.23
2018-11-25T06:30:43.099Z,9.17
2018-11-25T06:33:10.288Z,8.53
2018-11-25T06:35:37.456Z,9.20
2018-11-25T06:38:04.659Z,8.93
2018-11-25T06:40:31.821Z,8.80
2018-11-25T06:42:58.992Z,7.73
2018-11-25T06:45:26.813Z,9.10
2018-11-25T06:47:54.343Z,8.03
2018-11-25T06:50:21.561Z,9.00
2018-11-25T06:52:48.723Z,9.07
2018-11-25T06:55:15.868Z,7.80
2018-11-25T06:57:43.061Z,8.03
2018-11-25T07:00:11.959Z,8.07
2018-11-25T07:02:39.115Z,7.73
2018-11-25T07:05:06.693Z,8.13
2018-11-25T07:07:33.892Z,9.60
2018-11-25T07:10:01.394Z,7.43
2018-11-25T07:12:28.575Z,8.90
2018-11-25T07:14:55.736Z,7.70
2018-11-25T07:17:22.921Z,7.10
2018-11-25T07:19:50.067Z,7.80
2018-11-25T07:22:17.243Z,7.23
2018-11-25T07:24:44.420Z,7.00
2018-11-25T07:27:11.591Z,8.97
2018-11-25T07:29:38.773Z,8.63
2018-11-25T07:32:05.939Z,7.63
2018-11-25T07:34:33.121Z,8.07
2018-11-25T07:37:00.314Z,9.30
2018-11-25T07:39:27.495Z,7.37
2018-11-25T07:41:54.650Z,7.70
2018-11-25T07:44:21.856Z,8.50
2018-11-25T07:46:49.010Z,7.13
2018-11-25T07:49:16.163Z,7.97
2018-11-25T07:51:43.411Z,7.23
2018-11-25T07:54:10.575Z,8.50
2018-11-25T07:56:37.764Z,7.93
2018-11-25T07:59:05.135Z,8.20
2018-11-25T08:01:32.315Z,7.50
2018-11-25T08:03:59.499Z,7.70
2018-11-25T08:06:26.674Z,8.13
2018-11-25T08:08:53.872Z,7.83
2018-11-25T08:11:21.049Z,8.23
2018-11-25T08:13:48.196Z,7.37
2018-11-25T08:16:15.348Z,7.47
2018-11-25T08:18:42.530Z,9.57
2018-11-25T08:21:09.700Z,7.10
2018-11-25T08:23:36.843Z,6.23
2018-11-25T08:26:04.115Z,5.40
2018-11-25T08:28:31.267Z,5.40
2018-11-25T08:30:58.419Z,4.80
2018-11-25T08:33:25.600Z,4.60
2018-11-25T08:35:52.780Z,5.40
2018-11-25T08:38:19.930Z,6.93
2018-11-25T08:40:47.111Z,6.73
2018-11-25T08:43:14.525Z,8.20
2018-11-25T08:45:41.772Z,7.20
2018-11-25T08:48:09.324Z,6.97
2018-11-25T08:50:36.906Z,6.20
2018-11-25T08:53:04.398Z,6.87
2018-11-25T08:55:31.596Z,6.30
2018-11-25T08:57:59.174Z,6.13
2018-11-25T09:00:27.513Z,6.20
2018-11-25T09:02:56.678Z,6.87
2018-11-25T09:05:24.403Z,6.97
2018-11-25T09:07:51.773Z,7.17
2018-11-25T09:10:26.234Z,7.70
2018-11-25T09:12:56.049Z,7.13
2018-11-25T09:15:22.682Z,9.40
2018-11-25T09:17:49.904Z,9.43
2018-11-25T09:20:17.979Z,9.30
2018-11-25T09:22:45.160Z,8.00
2018-11-25T09:25:15.961Z,11.37
2018-11-25T09:27:43.232Z,7.30
2018-11-25T09:30:14.174Z,7.77
2018-11-25T09:32:41.407Z,8.53
2018-11-25T09:35:08.613Z,8.37
2018-11-25T09:37:35.775Z,10.27
2018-11-25T09:40:07.191Z,10.33
2018-11-25T09:42:34.401Z,9.63
2018-11-25T09:45:01.912Z,12.33
2018-11-25T09:47:29.079Z,12.97
2018-11-25T09:49:56.282Z,12.97
2018-11-25T09:52:23.532Z,11.07
2018-11-25T09:54:50.685Z,11.43
2018-11-25T09:57:17.952Z,10.30
2018-11-25T09:59:45.263Z,11.33
2018-11-25T10:02:12.460Z,12.60
2018-11-25T10:04:39.624Z,13.77
2018-11-25T10:07:06.811Z,12.10
2018-11-25T10:09:34.031Z,20.90
2018-11-25T10:12:01.189Z,31.07
2018-11-25T10:14:28.347Z,38.50
2018-11-25T10:16:55.534Z,17.03
2018-11-25T10:19:22.687Z,17.33
2018-11-25T10:21:49.876Z,17.97
2018-11-25T10:24:17.091Z,20.67
2018-11-25T10:26:44.285Z,24.67
2018-11-25T10:29:11.437Z,24.83
2018-11-25T10:31:38.619Z,28.87
2018-11-25T10:34:05.813Z,36.37
2018-11-25T10:36:32.981Z,47.93
2018-11-25T10:39:00.334Z,38.57
2018-11-25T10:41:27.521Z,33.93
2018-11-25T10:43:54.695Z,17.27
2018-11-25T10:46:21.899Z,20.33
2018-11-25T10:48:49.087Z,14.97
2018-11-25T10:51:16.253Z,41.30
2018-11-25T10:53:43.401Z,26.80
2018-11-25T10:56:10.607Z,15.47
2018-11-25T10:58:37.772Z,16.43
2018-11-25T11:01:11.089Z,13.87
2018-11-25T11:03:43.801Z,11.47
2018-11-25T11:06:16.378Z,14.00
2018-11-25T11:08:43.574Z,11.97
2018-11-25T11:11:10.747Z,10.77
2018-11-25T11:13:37.945Z,10.00
2018-11-25T11:16:05.128Z,9.17
2018-11-25T11:18:34.769Z,9.30
2018-11-25T11:21:02.376Z,9.90
2018-11-25T11:23:29.569Z,8.80
2018-11-25T11:25:56.725Z,10.57
2018-11-25T11:28:23.892Z,9.40
2018-11-25T11:30:51.071Z,10.10
2018-11-25T11:33:18.632Z,8.57
2018-11-25T11:35:45.888Z,9.50
2018-11-25T11:38:13.243Z,9.37
2018-11-25T11:40:40.428Z,11.70
2018-11-25T11:43:07.953Z,11.80
2018-11-25T11:45:35.151Z,12.17
2018-11-25T11:48:02.865Z,19.63
2018-11-25T11:50:30.464Z,12.97
2018-11-25T11:52:57.727Z,12.93
2018-11-25T11:55:24.912Z,12.60
2018-11-25T11:57:52.241Z,25.57
2018-11-25T12:00:24.164Z,17.73
2018-11-25T12:02:51.413Z,22.40
2018-11-25T12:05:18.601Z,13.97
2018-11-25T12:07:45.781Z,10.67
2018-11-25T12:10:13.415Z,17.73
2018-11-25T12:12:40.591Z,21.00
2018-11-25T12:15:09.828Z,12.07
2018-11-25T12:17:36.992Z,16.23
2018-11-25T12:20:04.167Z,16.37
2018-11-25T12:22:31.348Z,13.57
2018-11-25T12:24:58.518Z,19.67
2018-11-25T12:27:25.688Z,20.57
2018-11-25T12:29:52.867Z,15.13
2018-11-25T12:32:20.041Z,13.00
2018-11-25T12:34:47.202Z,13.83
2018-11-25T12:37:14.388Z,12.00
2018-11-25T12:39:41.560Z,12.20
2018-11-25T12:42:08.719Z,10.40
2018-11-25T12:44:35.911Z,12.80
2018-11-25T12:47:03.072Z,11.50
2018-11-25T12:49:30.262Z,11.87
2018-11-25T12:51:57.448Z,13.20
2018-11-25T12:54:24.619Z,16.53
2018-11-25T12:56:52.053Z,9.60
2018-11-25T12:59:18.968Z,14.10
2018-11-25T13:01:46.149Z,12.40
2018-11-25T13:04:13.324Z,10.73
2018-11-25T13:06:40.511Z,15.27
2018-11-25T13:09:07.808Z,16.23
2018-11-25T13:11:34.995Z,10.90
2018-11-25T13:14:02.455Z,9.93
2018-11-25T13:16:29.839Z,18.43
2018-11-25T13:18:57.166Z,13.50
2018-11-25T13:21:24.363Z,17.90
2018-11-25T13:23:51.562Z,16.40
2018-11-25T13:26:18.735Z,11.00
2018-11-25T13:28:45.940Z,13.43
2018-11-25T13:31:13.095Z,11.13
2018-11-25T13:33:40.302Z,11.37
2018-11-25T13:36:08.368Z,10.80
2018-11-25T13:38:35.552Z,11.60
2018-11-25T13:41:03.111Z,12.97
2018-11-25T13:43:30.268Z,13.13
2018-11-25T13:45:57.448Z,11.43
2018-11-25T13:48:24.634Z,12.80
2018-11-25T13:50:51.822Z,13.10
2018-11-25T13:53:19.002Z,12.53
2018-11-25T13:55:46.155Z,12.53
2018-11-25T13:58:13.339Z,11.50
2018-11-25T14:00:41.613Z,11.37
2018-11-25T14:03:09.690Z,13.00
2018-11-25T14:05:36.932Z,12.20
2018-11-25T14:08:04.215Z,12.00
2018-11-25T14:10:32.196Z,13.07
2018-11-25T14:12:59.382Z,11.60
2018-11-25T14:15:26.571Z,11.20
2018-11-25T14:17:53.747Z,12.27
2018-11-25T14:20:20.936Z,11.90
2018-11-25T14:22:48.083Z,12.23
2018-11-25T14:25:16.303Z,10.40
2018-11-25T14:27:43.757Z,12.43
2018-11-25T14:30:14.755Z,11.63
2018-11-25T14:32:41.945Z,11.90
2018-11-25T14:35:10.867Z,13.90
2018-11-25T14:37:38.039Z,12.40
2018-11-25T14:40:06.956Z,11.60
2018-11-25T14:42:34.488Z,12.07
2018-11-25T14:45:03.057Z,11.30
2018-11-25T14:47:30.284Z,11.60
2018-11-25T14:49:58.283Z,14.23
2018-11-25T14:52:32.960Z,13.00
2018-11-25T14:55:00.298Z,13.93
2018-11-25T14:57:28.094Z,13.83
2018-11-25T14:59:56.315Z,14.10
2018-11-25T15:02:23.472Z,12.80
2018-11-25T15:04:50.755Z,13.90
2018-11-25T15:07:18.307Z,12.73
2018-11-25T15:09:45.488Z,14.00
2018-11-25T15:12:12.643Z,13.10
2018-11-25T15:14:40.052Z,12.97
2018-11-25T15:17:07.568Z,13.70
2018-11-25T15:19:34.921Z,14.33
2018-11-25T15:22:02.593Z,15.50
2018-11-25T15:24:31.175Z,17.57
2018-11-25T15:26:59.016Z,16.07
2018-11-25T15:29:26.188Z,20.00
2018-11-25T15:31:53.386Z,15.37
2018-11-25T15:34:20.579Z,16.37
2018-11-25T15:36:48.360Z,30.60
2018-11-25T15:39:17.476Z,26.27
2018-11-25T15:41:44.810Z,17.03
2018-11-25T15:44:12.062Z,17.87
2018-11-25T15:46:41.402Z,19.00
2018-11-25T15:49:09.051Z,17.67
2018-11-25T15:51:36.349Z,20.07
2018-11-25T15:54:04.232Z,15.63
2018-11-25T15:56:32.294Z,19.87
2018-11-25T15:58:59.960Z,23.77
2018-11-25T16:01:29.306Z,19.37
2018-11-25T16:03:56.756Z,21.87
2018-11-25T16:06:27.573Z,17.50
2018-11-25T16:08:55.599Z,21.67
2018-11-25T16:11:23.526Z,13.63
2018-11-25T16:13:50.723Z,14.80
2018-11-25T16:16:17.950Z,14.43
2018-11-25T16:18:45.115Z,15.40
2018-11-25T16:21:12.326Z,16.40
2018-11-25T16:23:39.649Z,17.27
2018-11-25T16:26:09.092Z,14.00
2018-11-25T16:28:38.293Z,16.17
2018-11-25T16:31:05.685Z,14.53
2018-11-25T16:33:33.371Z,15.67
2018-11-25T16:36:01.647Z,14.80
2018-11-25T16:38:28.816Z,16.40
2018-11-25T16:40:56.005Z,16.20
2018-11-25T16:43:23.653Z,15.50
2018-11-25T16:45:50.890Z,16.57
2018-11-25T16:48:18.060Z,17.10
2018-11-25T16:50:45.244Z,18.47
2018-11-25T16:53:12.456Z,17.53
2018-11-25T16:55:39.626Z,16.93
2018-11-25T16:58:06.893Z,17.40
2018-11-25T17:00:34.052Z,17.90
2018-11-25T17:03:01.886Z,18.73
2018-11-25T17:05:30.557Z,19.60
2018-11-25T17:08:32.215Z,19.30
2018-11-25T17:11:06.356Z,19.27
2018-11-25T17:13:33.551Z,32.27
2018-11-25T17:16:00.761Z,112.27
2018-11-25T17:18:28.033Z,112.60
2018-11-25T17:20:55.356Z,196.83
2018-11-25T17:23:22.635Z,76.23
2018-11-25T17:25:49.814Z,93.77
2018-11-25T17:28:17.026Z,141.00
2018-11-25T17:30:44.193Z,108.37
2018-11-25T17:33:11.478Z,47.83
2018-11-25T17:35:38.647Z,110.70
2018-11-25T17:38:06.168Z,71.30
2018-11-25T17:40:33.340Z,45.53
2018-11-25T17:43:00.495Z,48.23
2018-11-25T17:45:27.675Z,41.03
2018-11-25T17:47:54.844Z,47.17
2018-11-25T17:50:22.647Z,25.73
2018-11-25T17:52:49.814Z,27.73
2018-11-25T17:55:17.238Z,30.40
2018-11-25T17:57:44.496Z,24.77
2018-11-25T18:00:20.135Z,30.87
2018-11-25T18:02:47.308Z,31.30
2018-11-25T18:05:14.525Z,38.30
2018-11-25T18:07:41.687Z,30.47
2018-11-25T18:10:10.481Z,26.33
2018-11-25T18:12:37.699Z,29.47
2018-11-25T18:15:06.220Z,30.70
2018-11-25T18:17:33.434Z,35.00
2018-11-25T18:20:00.592Z,30.67
2018-11-25T18:22:28.645Z,26.83
2018-11-25T18:24:55.836Z,31.63
2018-11-25T18:27:23.003Z,25.57
2018-11-25T18:29:50.363Z,31.43
2018-11-25T18:32:17.548Z,26.10
2018-11-25T18:34:44.729Z,25.97
2018-11-25T18:37:11.904Z,26.83
2018-11-25T18:39:39.276Z,21.93
2018-11-25T18:42:06.447Z,27.20
2018-11-25T18:44:33.603Z,33.07
2018-11-25T18:47:01.892Z,28.87
2018-11-25T18:49:29.094Z,26.03
2018-11-25T18:51:56.255Z,24.80
2018-11-25T18:54:23.432Z,27.63
2018-11-25T18:56:50.604Z,23.77
2018-11-25T18:59:17.778Z,21.90
2018-11-25T19:01:48.393Z,21.80
2018-11-25T19:04:15.576Z,23.80
2018-11-25T19:06:42.734Z,23.10
2018-11-25T19:09:10.312Z,23.97
2018-11-25T19:11:37.475Z,21.83
2018-11-25T19:14:04.652Z,26.93
2018-11-25T19:16:31.842Z,23.17
2018-11-25T19:18:58.991Z,25.77
2018-11-25T19:21:26.174Z,26.00
2018-11-25T19:23:53.348Z,22.00
2018-11-25T19:26:20.564Z,23.57
2018-11-25T19:28:47.744Z,22.80
2018-11-25T19:31:14.933Z,21.40
2018-11-25T19:33:42.123Z,21.60
2018-11-25T19:36:09.288Z,20.47
2018-11-25T19:38:36.465Z,25.10
2018-11-25T19:41:03.619Z,19.93
2018-11-25T19:43:30.800Z,22.67
2018-11-25T19:45:57.956Z,24.37
2018-11-25T19:48:25.135Z,23.67
2018-11-25T19:50:52.300Z,19.27
2018-11-25T19:53:19.486Z,23.97
2018-11-25T19:55:46.647Z,19.53
2018-11-25T19:58:13.835Z,20.53
2018-11-25T20:00:40.991Z,23.57
2018-11-25T20:03:08.192Z,22.00
2018-11-25T20:05:35.433Z,19.00
2018-11-25T20:08:03.059Z,18.37
2018-11-25T20:10:30.181Z,15.63
2018-11-25T20:12:57.690Z,18.37
2018-11-25T20:15:24.932Z,15.43
2018-11-25T20:17:54.407Z,17.47
2018-11-25T20:20:21.580Z,17.00
2018-11-25T20:22:49.064Z,18.00
2018-11-25T20:25:16.734Z,19.47
2018-11-25T20:27:45.994Z,19.17
2018-11-25T20:30:14.777Z,17.07
2018-11-25T20:32:47.485Z,17.63
2018-11-25T20:35:14.667Z,18.00
2018-11-25T20:37:47.412Z,17.90
2018-11-25T20:40:14.587Z,16.57
2018-11-25T20:42:41.778Z,18.13
2018-11-25T20:45:15.042Z,18.70
2018-11-25T20:47:42.385Z,18.13
2018-11-25T20:50:09.574Z,17.80
2018-11-25T20:52:42.212Z,15.90
2018-11-25T20:55:09.383Z,17.70
2018-11-25T20:57:36.571Z,16.80
2018-11-25T21:00:04.000Z,18.10
2018-11-25T21:02:31.167Z,16.03
2018-11-25T21:04:58.372Z,17.47
2018-11-25T21:07:25.549Z,16.70
2018-11-25T21:09:52.731Z,14.67
2018-11-25T21:12:19.916Z,16.70
2018-11-25T21:14:47.067Z,15.67
2018-11-25T21:17:14.352Z,17.13
2018-11-25T21:19:41.540Z,15.70
2018-11-25T21:22:08.722Z,16.23
2018-11-25T21:24:35.882Z,18.93
2018-11-25T21:27:03.060Z,15.50
2018-11-25T21:29:30.230Z,15.03
2018-11-25T21:31:57.408Z,16.07
2018-11-25T21:34:24.576Z,17.37
2018-11-25T21:36:51.763Z,15.83
2018-11-25T21:39:18.931Z,16.10
2018-11-25T21:41:46.119Z,17.57
2018-11-25T21:44:13.285Z,16.70
2018-11-25T21:46:40.476Z,15.37
2018-11-25T21:49:07.681Z,16.70
2018-11-25T21:51:34.848Z,17.00
2018-11-25T21:54:02.278Z,18.70
2018-11-25T21:56:29.463Z,16.40
2018-11-25T21:58:56.650Z,17.47
2018-11-25T22:01:23.835Z,16.70
2018-11-25T22:03:51.039Z,17.40
2018-11-25T22:06:18.255Z,17.37
2018-11-25T22:08:45.963Z,18.53
2018-11-25T22:11:13.255Z,19.70
2018-11-25T22:13:40.406Z,19.97
2018-11-25T22:16:07.610Z,15.83
2018-11-25T22:18:34.782Z,18.57
2018-11-25T22:21:02.691Z,15.27
2018-11-25T22:23:29.879Z,19.60
2018-11-25T22:25:57.036Z,18.93
2018-11-25T22:28:24.225Z,21.60
2018-11-25T22:30:51.391Z,19.30
2018-11-25T22:33:18.555Z,18.90
2018-11-25T22:35:45.760Z,19.23
2018-11-25T22:38:12.930Z,19.60
2018-11-25T22:40:40.111Z,19.43
2018-11-25T22:43:07.267Z,16.50
2018-11-25T22:45:34.468Z,20.07
2018-11-25T22:48:02.392Z,19.83
2018-11-25T22:50:29.587Z,18.83
2018-11-25T22:52:56.744Z,19.77
2018-11-25T22:55:24.872Z,20.20
2018-11-25T22:57:52.063Z,17.33
2018-11-25T23:00:20.899Z,19.17
2018-11-25T23:02:48.064Z,17.40
2018-11-25T23:05:20.836Z,18.57
2018-11-25T23:07:48.139Z,18.47
2018-11-25T23:10:16.072Z,21.10
2018-11-25T23:12:43.239Z,17.93
2018-11-25T23:15:10.416Z,18.50
2018-11-25T23:17:37.600Z,21.10
2018-11-25T23:20:05.575Z,21.53
2018-11-25T23:22:32.776Z,22.27
2018-11-25T23:24:59.938Z,19.07
2018-11-25T23:27:27.129Z,19.20
2018-11-25T23:29:54.306Z,21.27
2018-11-25T23:32:21.479Z,17.70
2018-11-25T23:34:48.662Z,19.30
2018-11-25T23:37:15.835Z,18.67
2018-11-25T23:39:43.030Z,22.10
2018-11-25T23:42:10.263Z,18.80
2018-11-25T23:44:37.425Z,19.90
2018-11-25T23:47:04.618Z,18.20
2018-11-25T23:49:31.775Z,18.40
2018-11-25T23:51:58.959Z,19.07
2018-11-25T23:54:26.161Z,19.17
2018-11-25T23:56:53.319Z,24.30
2018-11-25T23:59:20.503Z,18.93
